This is the latest recevied weather packets stored in our database for station/object AL7BX-WX. If no packets are shown the sender has not sent any weather packets the latest 10 day(s).
| Time | Temp. | Humidity | Pressure | Rain* | Wind** | Luminosity | Snow |
|---|---|---|---|---|---|---|---|
| 1777665734 | 16.67° C | 27% | 0 hPa | 0 mm | - | - | - |
| 1777664833 | 16.67° C | 29% | 0 hPa | 0 mm | - | - | - |
| 1777664163 | 16.67° C | 29% | 0 hPa | 0 mm | - | - | - |
| 1777657632 | 15° C | 29% | 0 hPa | 0 mm | - | - | - |
| 1777656423 | 14.44° C | 32% | 0 hPa | 0 mm | - | - | - |
| 1777653363 | 13.33° C | 37% | 0 hPa | 0 mm | - | - | - |
| 1777651203 | 11.11° C | 39% | 0 hPa | 0 mm | - | - | - |
| 1777641483 | -1.11° C | 66% | 0 hPa | 0 mm | - | - | - |
| 1777640943 | -1.11° C | 65% | 0 hPa | 0 mm | - | - | - |
| 1777639632 | -1.11° C | 65% | 0 hPa | 0 mm | - | - | - |
| 1777636443 | 0° C | 62% | 0 hPa | 0 mm | - | - | - |
| 1777635903 | 0° C | 61% | 0 hPa | 0 mm | - | - | - |
| 1777634953 | 1.11° C | 59% | 0 hPa | 0 mm | - | - | - |
| 1777632843 | 1.67° C | 57% | 0 hPa | 0 mm | - | - | - |
| 1777630143 | 2.22° C | 55% | 0 hPa | 0 mm | - | - | - |
| 1777620963 | 2.78° C | 56% | 0 hPa | 0 mm | - | - | - |
| 1777620423 | 2.78° C | 57% | 0 hPa | 0 mm | - | - | - |
| 1777619343 | 2.22° C | 59% | 0 hPa | 0 mm | - | - | - |
| 1777618803 | 2.78° C | 57% | 0 hPa | 0 mm | - | - | - |
| 1777618443 | 3.33° C | 56% | 0 hPa | 0 mm | - | - | - |
| 1777617363 | 3.89° C | 53% | 0 hPa | 0 mm | - | - | - |
| 1777616283 | 4.44° C | 50% | 0 hPa | 0 mm | - | - | - |
| 1777615337 | 5° C | 48% | 0 hPa | 0 mm | - | - | - |
| 1777600034 | 14.44° C | 29% | 0 hPa | 0 mm | - | - | - |
| 1777599364 | 15° C | 29% | 0 hPa | 0 mm | - | - | - |
* Rain latest hour (hover to see other rain measurements)
** Current wind speed in m/s (hover to see current wind gust speed)